METAR Data
IDs: Format: Raw Decoded Include TAF

Data at: 0509 UTC 20 Oct 2018

PFKT 200507Z AUTO 01010KT 10SM OVC100 03/01 A2955 RMK AO2 WSHFT 0447
PFKT 200456Z AUTO 01016G20KT 10SM OVC100 03/01 A2954 RMK AO2 SLP004 T00330011
PFKT 200356Z AUTO 02013KT 10SM BKN100 03/01 A2953 RMK AO2 SLP001 T00330011
PFKT 200256Z AUTO 00000KT 10SM FEW017 02/01 A2954 RMK AO2 SLP003 T00220006 56013 FZRANO
PFKT 200156Z AUTO 13004KT 10SM CLR 03/01 A2955 RMK AO2 SLP005 T00330011
PFKT 200113Z AUTO VRB03KT 10SM SCT014 BKN095 04/02 A2956 RMK AO2
PFKT 200056Z AUTO VRB03KT 10SM BKN014 05/02 A2957 RMK AO2 SLP011 T00500017
PFKT 192356Z AUTO VRB06KT 10SM BKN085 04/01 A2958 RMK AO2 SLP016 T00390011 10050 20011 58007
PFKT 192256Z AUTO 00000KT 10SM CLR 04/02 A2959 RMK AO2 SLP019 T00440017
PFKT 192156Z AUTO 08008KT 10SM CLR 04/01 A2960 RMK AO2 SLP022 T00390011
PFKT 192056Z AUTO 01011G16KT 10SM FEW044 04/01 A2960 RMK AO2 SLP022 T00390006 58014
PFKT 191956Z AUTO 10009G16KT 10SM BKN050 02/00 A2962 RMK AO2 SLP031 T00220000 FZRANO
PFKT 191856Z AUTO VRB04KT 10SM FEW004 OVC050 01/00 A2963 RMK AO2 SLP034 T00110000 FZRANO
PFKT 191756Z AUTO 00000KT 10SM FEW009 OVC050 02/00 A2964 RMK AO2 SLP037 T00170000 10028 20011 56018 FZRANO
PFKT 191725Z AUTO 00000KT 10SM FEW009 OVC050 01/00 A2965 RMK AO2 FZRANO
PFKT 191713Z AUTO 00000KT 10SM SCT012 OVC050 01/M01 A2965 RMK AO2 FZRANO
PFKT 191656Z AUTO 13008KT 10SM OVC012 01/M01 A2966 RMK AO2 SLP043 T00111006 FZRANO
PFKT 191556Z AUTO VRB03KT 10SM OVC012 02/01 A2967 RMK AO2 SLP049 T00220006 FZRANO
PFKT 191542Z AUTO 07006KT 10SM OVC010 02/01 A2968 RMK AO2 CIG 008V013 FZRANO
PFKT 191523Z AUTO 05009KT 10SM OVC008 02/01 A2968 RMK AO2 CIG 008V012 FZRANO
PFKT 191456Z AUTO 10009KT 10SM OVC011 01/00 A2969 RMK AO2 SLP055 T00110000 56017 FZRANO
PFKT 191444Z AUTO 11010KT 10SM BKN011 OVC050 02/M01 A2969 RMK AO2 FZRANO
PFKT 191356Z AUTO 08011KT 10SM OVC050 01/M01 A2970 RMK AO2 SLP059 T00111006 FZRANO
PFKT 191321Z AUTO 11010KT 10SM SCT014 OVC055 01/M01 A2971 RMK AO2 FZRANO
PFKT 191256Z AUTO 12009KT 10SM OVC014 01/M01 A2972 RMK AO2 SLP065 T00111011 FZRANO
PFKT 191245Z AUTO 12010KT 10SM BKN014 OVC055 01/M01 A2973 RMK AO2 FZRANO
PFKT 191218Z AUTO 10009KT 10SM FEW014 SCT029 OVC050 01/M02 A2973 RMK AO2 FZRANO
PFKT 191156Z AUTO 12008KT 10SM FEW014 OVC029 02/M01 A2974 RMK AO2 SLP071 T00171011 10017 21017 58014 FZRANO
PFKT 191145Z AUTO 08007KT 10SM FEW014 BKN029 OVC050 02/M01 A2974 RMK AO2 FZRANO
PFKT 191115Z AUTO 07007KT 10SM BKN014 OVC030 00/M02 A2975 RMK AO2 FZRANO
PFKT 191056Z AUTO 09008KT 10SM FEW014 OVC030 01/M02 A2976 RMK AO2 SLP077 T00061022 FZRANO
PFKT 190956Z AUTO 08011KT 10SM SCT014 OVC044 01/M02 A2977 RMK AO2 SLP081 T00061022 FZRANO
PFKT 190946Z AUTO 07010KT 10SM SCT012 SCT031 OVC046 00/M03 A2977 RMK AO2 FZRANO
PFKT 190856Z AUTO 06009KT 10SM BKN014 M01/M03 A2978 RMK AO2 SLP085 T10061028 400171017 58006 FZRANO
PFKT 190803Z AUTO 08007KT 10SM OVC014 M01/M03 A2979 RMK AO2 FZRANO
PFKT 190756Z AUTO 09010KT 10SM OVC016 M01/M03 A2979 RMK AO2 SLP088 T10111028 FZRANO
PFKT 190738Z AUTO 09009KT 10SM BKN018 M01/M03 A2979 RMK AO2 FZRANO
PFKT 190721Z AUTO 09009KT 10SM SCT024 M02/M03 A2979 RMK AO2 FZRANO
PFKT 190656Z AUTO 06008KT 10SM OVC022 M01/M03 A2979 RMK AO2 SLP090 T10061028 FZRANO
PFKT 190556Z AUTO 08008KT 10SM BKN022 M01/M03 A2980 RMK AO2 SLP092 60000 T10111028 10011 21017 58003 FZRANO
PFKT 190456Z AUTO 08007KT 10SM SCT020 M01/M03 A2980 RMK AO2 SLP093 T10061033 FZRANO
PFKT 190356Z AUTO 08006KT 10SM BKN022 M01/M03 A2981 RMK AO2 SLP096 T10111033 FZRANO
PFKT 190256Z AUTO 07006KT 10SM BKN024 OVC029 00/M02 A2981 RMK AO2 UPB0159E08RAB08E23SNB23E36 SLP095 P0000 60000 T00001022 56004 FZRANO
PFKT 190231Z AUTO 05009KT 3SM -SN BR FEW013 BKN019 OVC027 00/M02 A2981 RMK AO2 UPB0159E08RAB08E23SNB23 P0000 FZRANO
PFKT 190224Z AUTO 04006KT 1 3/4SM -SN BR BKN017 OVC027 00/M01 A2982 RMK AO2 UPB0159E08RAB08E23SNB23 CIG 012V023 P0000 FZRANO
PFKT 190156Z AUTO 07007KT 10SM OVC026 01/M02 A2981 RMK AO2 SLP097 T00111022 FZRANO
PFKT 190056Z AUTO 06007KT 10SM OVC024 01/M03 A2981 RMK AO2 SLP097 T00111033 FZRANO
PFKT 182356Z AUTO 05009KT 10SM OVC024 01/M04 A2982 RMK AO2 SLP099 T00111039 10011 20006 58003 FZRANO
PFKT 182256Z AUTO 05008KT 10SM OVC026 01/M04 A2983 RMK AO2 SLP101 T00111039 FZRANO
PFKT 182156Z AUTO 05008KT 10SM OVC028 01/M04 A2983 RMK AO2 SLP102 T00111044 FZRANO
PFKT 182153Z AUTO 04010KT 10SM OVC028 01/M04 A2983 RMK AO2 FZRANO
PFKT 182056Z AUTO 04004KT 10SM OVC030 01/M04 A2983 RMK AO2 SLP102 T00061044 52006 FZRANO
PFKT 181956Z AUTO 36008KT 10SM OVC032 01/M05 A2983 RMK AO2 SLP101 T00061050 FZRANO
PFKT 181856Z AUTO 03010KT 10SM OVC034 01/M05 A2982 RMK AO2 SLP097 T00061050 FZRANO
PFKT 181756Z AUTO 01012KT 10SM OVC032 01/M05 A2981 RMK AO2 SLP095 T00111050 10011 20006 51005 FZRANO